createdAt,value
2022-10-11T00:01:18.994Z,96706.06
2022-10-11T00:03:45.566Z,96706.66
2022-10-11T00:06:12.101Z,96698.56
2022-10-11T00:08:38.608Z,96705.47
2022-10-11T00:11:07.866Z,96707.34
2022-10-11T00:13:34.783Z,96696.41
2022-10-11T00:16:01.580Z,96699.44
2022-10-11T00:18:28.260Z,96696.75
2022-10-11T00:21:07.383Z,96700.44
2022-10-11T00:23:34.037Z,96702.50
2022-10-11T00:26:02.216Z,96704.25
2022-10-11T00:28:29.358Z,96707.66
2022-10-11T00:30:56.538Z,96708.78
2022-10-11T00:33:23.202Z,96705.72
2022-10-11T00:35:49.913Z,96703.41
2022-10-11T00:38:17.296Z,96701.47
2022-10-11T00:40:45.038Z,96699.94
2022-10-11T00:43:23.774Z,96708.69
2022-10-11T00:45:56.367Z,96710.25
2022-10-11T00:48:27.681Z,96714.84
2022-10-11T00:50:57.493Z,96717.84
2022-10-11T00:53:24.867Z,96718.03
2022-10-11T00:55:55.690Z,96726.91
2022-10-11T00:58:23.550Z,96726.81
2022-10-11T01:00:50.888Z,96729.81
2022-10-11T01:03:20.020Z,96731.34
2022-10-11T01:05:47.281Z,96737.53
2022-10-11T01:08:13.915Z,96738.41
2022-10-11T01:10:40.567Z,96742.66
2022-10-11T01:13:25.701Z,96738.13
2022-10-11T01:16:07.762Z,96724.06
2022-10-11T01:18:49.861Z,96725.78
2022-10-11T01:21:53.199Z,96734.34
2022-10-11T01:24:31.676Z,96727.44
2022-10-11T01:27:20.719Z,96733.72
2022-10-11T01:30:03.465Z,96736.63
2022-10-11T01:32:38.826Z,96737.25
2022-10-11T01:35:17.264Z,96736.78
2022-10-11T01:37:50.202Z,96729.56
2022-10-11T01:40:27.238Z,96735.28
2022-10-11T01:42:55.889Z,96744.06
2022-10-11T01:45:22.868Z,96747.97
2022-10-11T01:48:01.493Z,96762.47
2022-10-11T01:50:34.186Z,96754.47
2022-10-11T01:53:11.829Z,96751.19
2022-10-11T01:55:51.692Z,96748.84
2022-10-11T01:58:40.267Z,96747.44
2022-10-11T02:01:23.776Z,96751.34
2022-10-11T02:03:57.134Z,96754.16
2022-10-11T02:06:43.197Z,96746.50
2022-10-11T02:09:27.792Z,96762.59
2022-10-11T02:11:59.291Z,96752.06
2022-10-11T02:14:30.765Z,96743.22
2022-10-11T02:17:10.689Z,96769.22
2022-10-11T02:19:48.279Z,96771.13
2022-10-11T02:22:35.598Z,96762.66
2022-10-11T02:25:05.832Z,96758.69
2022-10-11T02:27:37.025Z,96768.09
2022-10-11T02:30:07.317Z,96764.69
2022-10-11T02:32:38.206Z,96756.66
2022-10-11T02:35:05.428Z,96765.81
2022-10-11T02:37:36.115Z,96756.72
2022-10-11T02:40:40.235Z,96756.59
2022-10-11T02:43:18.171Z,96757.91
2022-10-11T02:45:50.304Z,96758.31
2022-10-11T02:48:17.811Z,96757.91
2022-10-11T02:50:44.475Z,96744.09
2022-10-11T02:53:10.953Z,96750.56
2022-10-11T02:55:37.687Z,96750.91
2022-10-11T02:58:04.458Z,96747.78
2022-10-11T03:00:31.728Z,96752.38
2022-10-11T03:02:58.305Z,96758.50
2022-10-11T03:05:24.770Z,96764.25
2022-10-11T03:07:51.253Z,96761.22
2022-10-11T03:10:17.714Z,96769.69
2022-10-11T03:12:44.347Z,96757.97
2022-10-11T03:15:10.879Z,96753.69
2022-10-11T03:17:37.718Z,96773.34
2022-10-11T03:20:05.863Z,96758.50
2022-10-11T03:22:32.315Z,96767.16
2022-10-11T03:25:03.718Z,96765.53
2022-10-11T03:27:31.819Z,96765.53
2022-10-11T03:29:58.635Z,96758.22
2022-10-11T03:32:25.307Z,96771.59
2022-10-11T03:34:51.726Z,96770.56
2022-10-11T03:37:19.385Z,96779.78
2022-10-11T03:39:45.977Z,96771.06
2022-10-11T03:42:13.316Z,96773.34
2022-10-11T03:44:41.576Z,96794.00
2022-10-11T03:47:08.465Z,96777.88
2022-10-11T03:49:36.146Z,96778.66
2022-10-11T03:52:05.188Z,96783.44
2022-10-11T03:54:31.631Z,96785.91
2022-10-11T03:56:58.567Z,96790.78
2022-10-11T03:59:25.199Z,96788.06
2022-10-11T04:01:51.726Z,96781.94
2022-10-11T04:04:18.352Z,96783.81
2022-10-11T04:06:44.825Z,96787.56
2022-10-11T04:09:11.332Z,96789.38
2022-10-11T04:11:37.752Z,96797.72
2022-10-11T04:14:04.511Z,96791.31
2022-10-11T04:16:30.971Z,96799.69
2022-10-11T04:18:57.443Z,96798.22
2022-10-11T04:21:23.887Z,96802.84
2022-10-11T04:23:50.672Z,96795.16
2022-10-11T04:26:17.173Z,96805.91
2022-10-11T04:28:43.701Z,96812.41
2022-10-11T04:31:10.269Z,96811.97
2022-10-11T04:33:36.875Z,96799.69
2022-10-11T04:36:03.848Z,96805.13
2022-10-11T04:38:30.557Z,96815.81
2022-10-11T04:41:06.194Z,96811.28
2022-10-11T04:43:32.628Z,96810.50
2022-10-11T04:45:59.062Z,96810.16
2022-10-11T04:48:25.518Z,96809.13
2022-10-11T04:50:51.967Z,96806.06
2022-10-11T04:53:18.434Z,96817.00
2022-10-11T04:55:44.918Z,96808.91
2022-10-11T04:58:11.370Z,96815.81
2022-10-11T05:00:37.923Z,96813.94
2022-10-11T05:03:04.340Z,96804.88
2022-10-11T05:05:30.790Z,96806.47
2022-10-11T05:07:57.223Z,96799.25
2022-10-11T05:10:23.675Z,96806.84
2022-10-11T05:12:50.137Z,96804.53
2022-10-11T05:15:16.795Z,96809.03
2022-10-11T05:17:43.224Z,96808.72
2022-10-11T05:20:10.011Z,96808.00
2022-10-11T05:22:36.465Z,96804.19
2022-10-11T05:25:03.084Z,96796.88
2022-10-11T05:27:29.537Z,96813.56
2022-10-11T05:29:56.016Z,96812.50
2022-10-11T05:32:25.573Z,96819.81
2022-10-11T05:34:54.125Z,96818.44
2022-10-11T05:37:20.594Z,96825.25
2022-10-11T05:39:47.249Z,96828.47
2022-10-11T05:42:13.810Z,96829.59
2022-10-11T05:44:40.252Z,96839.09
2022-10-11T05:47:06.711Z,96838.66
2022-10-11T05:49:33.201Z,96832.03
2022-10-11T05:51:59.684Z,96847.44
2022-10-11T05:54:31.045Z,96849.59
2022-10-11T05:56:57.489Z,96854.97
2022-10-11T05:59:23.910Z,96860.84
2022-10-11T06:01:50.451Z,96864.63
2022-10-11T06:04:18.979Z,96856.22
2022-10-11T06:06:45.556Z,96865.66
2022-10-11T06:09:12.709Z,96861.22
2022-10-11T06:11:41.329Z,96855.38
2022-10-11T06:14:09.233Z,96878.19
2022-10-11T06:16:35.757Z,96883.59
2022-10-11T06:19:02.476Z,96871.00
2022-10-11T06:21:29.160Z,96881.06
2022-10-11T06:24:01.160Z,96883.41
2022-10-11T06:26:28.892Z,96878.50
2022-10-11T06:28:55.413Z,96878.25
2022-10-11T06:31:22.143Z,96877.81
2022-10-11T06:33:48.695Z,96889.41
2022-10-11T06:36:16.866Z,96889.06
2022-10-11T06:38:45.351Z,96890.25
2022-10-11T06:41:15.977Z,96888.78
2022-10-11T06:43:42.542Z,96873.38
2022-10-11T06:46:09.259Z,96892.09
2022-10-11T06:48:40.313Z,96884.28
2022-10-11T06:51:06.837Z,96885.09
2022-10-11T06:53:33.484Z,96895.09
2022-10-11T06:56:08.519Z,96900.88
2022-10-11T06:58:35.876Z,96894.53
2022-10-11T07:01:04.945Z,96900.00
2022-10-11T07:03:32.060Z,96900.97
2022-10-11T07:06:13.760Z,96901.53
2022-10-11T07:08:40.688Z,96903.16
2022-10-11T07:11:16.628Z,96908.69
2022-10-11T07:13:43.660Z,96910.69
2022-10-11T07:16:12.281Z,96914.69
2022-10-11T07:18:39.826Z,96913.41
2022-10-11T07:21:10.449Z,96915.16
2022-10-11T07:23:37.161Z,96917.22
2022-10-11T07:26:05.085Z,96921.84
2022-10-11T07:28:31.858Z,96925.28
2022-10-11T07:30:59.086Z,96922.69
2022-10-11T07:33:25.609Z,96925.28
2022-10-11T07:35:57.662Z,96930.00
2022-10-11T07:38:24.107Z,96917.19
2022-10-11T07:40:50.562Z,96922.91
2022-10-11T07:43:17.098Z,96920.06
2022-10-11T07:45:45.464Z,96923.25
2022-10-11T07:48:11.927Z,96929.03
2022-10-11T07:50:38.545Z,96931.78
2022-10-11T07:53:05.009Z,96934.19
2022-10-11T07:55:35.523Z,96928.44
2022-10-11T07:58:02.005Z,96932.47
2022-10-11T08:00:28.740Z,96925.47
2022-10-11T08:02:55.186Z,96940.53
2022-10-11T08:05:21.707Z,96941.25
2022-10-11T08:07:48.819Z,96943.41
2022-10-11T08:10:15.549Z,96946.84
2022-10-11T08:12:41.987Z,96934.13
2022-10-11T08:15:08.770Z,96944.81
2022-10-11T08:17:35.362Z,96945.19
2022-10-11T08:20:01.934Z,96944.09
2022-10-11T08:22:28.563Z,96949.53
2022-10-11T08:24:56.374Z,96943.00
2022-10-11T08:27:22.937Z,96947.31
2022-10-11T08:29:49.617Z,96959.59
2022-10-11T08:32:16.208Z,96941.50
2022-10-11T08:34:42.694Z,96947.41
2022-10-11T08:37:09.373Z,96954.78
2022-10-11T08:39:35.930Z,96950.00
2022-10-11T08:42:06.860Z,96947.06
2022-10-11T08:45:09.565Z,96961.25
2022-10-11T08:47:40.238Z,96953.53
2022-10-11T08:50:15.156Z,96951.19
2022-10-11T08:52:47.518Z,96962.59
2022-10-11T08:55:31.779Z,96964.03
2022-10-11T08:57:59.320Z,96964.03
2022-10-11T09:00:31.042Z,96965.66
2022-10-11T09:03:08.837Z,96958.94
2022-10-11T09:06:11.922Z,96949.13
2022-10-11T09:09:12.429Z,96951.38
2022-10-11T09:12:09.379Z,96949.41
2022-10-11T09:14:39.106Z,96955.25
2022-10-11T09:18:03.889Z,96953.50
2022-10-11T09:20:43.015Z,96952.31
2022-10-11T09:23:31.433Z,96956.06
2022-10-11T09:26:14.428Z,96954.91
2022-10-11T09:29:06.105Z,96950.38
2022-10-11T09:31:33.004Z,96945.84
2022-10-11T09:34:11.506Z,96949.34
2022-10-11T09:37:05.655Z,96960.31
2022-10-11T09:39:37.801Z,96963.72
2022-10-11T09:42:06.947Z,96963.28
2022-10-11T09:44:51.380Z,96963.28
2022-10-11T09:47:22.018Z,96963.66
2022-10-11T09:49:57.735Z,96961.72
2022-10-11T09:52:25.703Z,96957.22
2022-10-11T09:54:56.462Z,96959.97
2022-10-11T09:57:25.986Z,96959.25
2022-10-11T09:59:59.425Z,96958.13
2022-10-11T10:02:27.570Z,96950.44
2022-10-11T10:04:57.047Z,96958.78
2022-10-11T10:07:23.963Z,96953.03
2022-10-11T10:09:51.037Z,96954.50
2022-10-11T10:12:24.635Z,96951.44
2022-10-11T10:15:30.069Z,96957.56
2022-10-11T10:18:25.587Z,96933.56
2022-10-11T10:23:44.378Z,96961.22
2022-10-11T10:26:17.078Z,96959.69
2022-10-11T10:29:32.541Z,96955.09
2022-10-11T10:32:15.155Z,96959.31
2022-10-11T10:35:03.008Z,96965.41
2022-10-11T10:37:35.600Z,96958.53
2022-10-11T10:40:09.376Z,96957.66
2022-10-11T10:42:40.410Z,96949.63
2022-10-11T10:45:18.632Z,96956.53
2022-10-11T10:48:08.201Z,96953.16
2022-10-11T10:50:50.081Z,96954.31
2022-10-11T10:53:35.444Z,96951.63
2022-10-11T10:56:15.491Z,96956.59
2022-10-11T10:59:19.072Z,96955.78
2022-10-11T11:02:35.437Z,96954.72
2022-10-11T11:05:29.160Z,96944.44
2022-10-11T11:08:07.827Z,96946.72
2022-10-11T11:10:41.377Z,96955.50
2022-10-11T11:13:37.391Z,96948.22
2022-10-11T11:16:23.977Z,96945.56
2022-10-11T11:19:22.926Z,96941.34
2022-10-11T11:22:10.812Z,96943.25
2022-10-11T11:24:52.980Z,96935.97
2022-10-11T11:27:41.557Z,96934.47
2022-10-11T11:30:22.218Z,96938.69
2022-10-11T11:33:16.235Z,96942.50
2022-10-11T11:35:47.306Z,96937.53
2022-10-11T11:38:27.143Z,96939.00
2022-10-11T11:40:58.111Z,96935.13
2022-10-11T11:43:36.406Z,96936.66
2022-10-11T11:46:09.662Z,96924.84
2022-10-11T11:48:37.248Z,96927.09
2022-10-11T11:51:09.481Z,96916.06
2022-10-11T11:54:02.223Z,96923.34
2022-10-11T11:57:05.708Z,96921.44
2022-10-11T11:59:37.868Z,96919.16
2022-10-11T12:02:41.645Z,96925.66
2022-10-11T12:05:10.492Z,96920.72
2022-10-11T12:10:54.936Z,96914.22
2022-10-11T12:13:36.943Z,96921.41
2022-10-11T12:16:06.681Z,96917.22
2022-10-11T12:18:38.144Z,96912.28
2022-10-11T12:21:18.892Z,96917.25
2022-10-11T12:23:53.590Z,96911.91
2022-10-11T12:26:29.203Z,96903.13
2022-10-11T12:29:04.150Z,96907.31
2022-10-11T12:31:36.682Z,96906.53
2022-10-11T12:34:32.522Z,96904.66
2022-10-11T12:37:02.158Z,96906.22
2022-10-11T12:39:46.585Z,96907.34
2022-10-11T12:42:25.405Z,96905.44
2022-10-11T12:45:10.769Z,96901.59
2022-10-11T12:47:49.806Z,96899.72
2022-10-11T12:50:22.563Z,96895.53
2022-10-11T12:53:10.887Z,96896.66
2022-10-11T12:56:01.978Z,96895.91
2022-10-11T12:58:41.345Z,96892.84
2022-10-11T13:01:17.519Z,96902.75
2022-10-11T13:04:11.466Z,96888.22
2022-10-11T13:06:47.194Z,96895.06
2022-10-11T13:09:40.013Z,96899.63
2022-10-11T13:12:15.812Z,96889.25
2022-10-11T13:15:12.795Z,96901.47
2022-10-11T13:17:40.536Z,96899.91
2022-10-11T13:20:17.191Z,96899.16
2022-10-11T13:22:47.252Z,96901.47
2022-10-11T13:25:21.908Z,96898.09
2022-10-11T13:27:51.597Z,96903.03
2022-10-11T13:30:24.213Z,96903.44
2022-10-11T13:32:52.283Z,96899.63
2022-10-11T13:35:36.235Z,96899.63
2022-10-11T13:38:04.509Z,96906.16
2022-10-11T13:40:31.870Z,96904.25
2022-10-11T13:42:58.711Z,96909.22
2022-10-11T13:45:27.361Z,96904.28
2022-10-11T13:47:55.392Z,96903.13
2022-10-11T13:50:35.178Z,96886.69
2022-10-11T13:53:23.080Z,96896.63
2022-10-11T13:55:54.246Z,96902.31
2022-10-11T13:58:27.256Z,96900.00
2022-10-11T14:01:03.787Z,96900.00
2022-10-11T14:03:44.486Z,96891.56
2022-10-11T14:06:11.314Z,96899.97
2022-10-11T14:08:44.330Z,96891.56
2022-10-11T14:11:12.666Z,96897.66
2022-10-11T14:13:47.705Z,96897.69
2022-10-11T14:16:30.214Z,96887.03
2022-10-11T14:18:59.380Z,96895.06
2022-10-11T14:21:35.140Z,96898.50
2022-10-11T14:24:08.155Z,96892.00
2022-10-11T14:26:38.168Z,96903.41
2022-10-11T14:29:24.878Z,96902.25
2022-10-11T14:32:01.089Z,96906.75
2022-10-11T14:34:28.757Z,96899.88
2022-10-11T14:36:55.390Z,96902.25
2022-10-11T14:39:25.442Z,96908.31
2022-10-11T14:41:52.571Z,96903.38
2022-10-11T14:44:21.009Z,96899.97
2022-10-11T14:46:49.175Z,96890.00
2022-10-11T14:49:21.818Z,96891.16
2022-10-11T14:51:50.052Z,96896.09
2022-10-11T14:54:19.293Z,96895.31
2022-10-11T14:56:46.413Z,96894.16
2022-10-11T14:59:15.334Z,96895.63
2022-10-11T15:01:42.156Z,96898.25
2022-10-11T15:04:09.053Z,96897.84
2022-10-11T15:06:38.743Z,96893.22
2022-10-11T15:09:05.814Z,96890.94
2022-10-11T15:11:32.886Z,96890.53
2022-10-11T15:13:59.514Z,96875.25
2022-10-11T15:16:26.946Z,96890.50
2022-10-11T15:18:53.460Z,96894.69
2022-10-11T15:21:21.942Z,96888.94
2022-10-11T15:23:49.234Z,96885.88
2022-10-11T15:26:21.836Z,96882.84
2022-10-11T15:28:49.137Z,96885.84
2022-10-11T15:31:16.204Z,96882.34
2022-10-11T15:33:42.718Z,96891.06
2022-10-11T15:36:13.604Z,96876.53
2022-10-11T15:38:40.645Z,96882.19
2022-10-11T15:41:08.434Z,96884.06
2022-10-11T15:43:34.896Z,96892.41
2022-10-11T15:46:02.342Z,96893.50
2022-10-11T15:48:29.091Z,96898.06
2022-10-11T15:50:55.804Z,96887.38
2022-10-11T15:53:28.766Z,96894.56
2022-10-11T15:55:57.327Z,96881.50
2022-10-11T15:58:29.985Z,96891.00
2022-10-11T16:01:00.287Z,96901.25
2022-10-11T16:03:28.972Z,96896.25
2022-10-11T16:05:58.876Z,96879.38
2022-10-11T16:08:27.960Z,96897.31
2022-10-11T16:10:54.932Z,96896.88
2022-10-11T16:13:21.432Z,96899.88
2022-10-11T16:15:48.987Z,96891.41
2022-10-11T16:18:17.362Z,96902.38
2022-10-11T16:20:46.120Z,96901.50
2022-10-11T16:23:13.204Z,96901.38
2022-10-11T16:25:40.177Z,96896.75
2022-10-11T16:28:08.042Z,96902.84
2022-10-11T16:30:39.304Z,96900.13
2022-10-11T16:33:05.829Z,96907.22
2022-10-11T16:35:32.779Z,96906.13
2022-10-11T16:38:00.704Z,96903.47
2022-10-11T16:40:29.792Z,96895.03
2022-10-11T16:42:56.270Z,96903.41
2022-10-11T16:45:22.855Z,96912.09
2022-10-11T16:47:49.433Z,96910.06
2022-10-11T16:50:15.978Z,96915.31
2022-10-11T16:52:42.572Z,96921.66
2022-10-11T16:55:09.348Z,96912.38
2022-10-11T16:57:37.744Z,96919.59
2022-10-11T17:00:08.858Z,96919.59
2022-10-11T17:02:35.909Z,96920.31
2022-10-11T17:05:02.512Z,96921.75
2022-10-11T17:07:29.072Z,96932.38
2022-10-11T17:09:55.668Z,96928.59
2022-10-11T17:12:23.538Z,96935.81
2022-10-11T17:14:50.530Z,96930.50
2022-10-11T17:17:18.353Z,96932.41
2022-10-11T17:19:45.697Z,96931.66
2022-10-11T17:22:15.215Z,96930.50
2022-10-11T17:24:41.821Z,96928.59
2022-10-11T17:27:08.592Z,96930.88
2022-10-11T17:29:35.458Z,96928.63
2022-10-11T17:32:02.034Z,96926.72
2022-10-11T17:34:29.403Z,96922.53
2022-10-11T17:36:55.912Z,96927.94
2022-10-11T17:39:23.747Z,96927.94
2022-10-11T17:41:50.524Z,96934.75
2022-10-11T17:44:18.452Z,96931.56
2022-10-11T17:46:45.681Z,96926.38
2022-10-11T17:49:12.999Z,96929.69
2022-10-11T17:51:40.526Z,96893.97
2022-10-11T17:54:12.282Z,96928.00
2022-10-11T17:56:39.426Z,96929.75
2022-10-11T17:59:06.492Z,96924.69
2022-10-11T18:01:33.178Z,96919.19
2022-10-11T18:04:03.039Z,96924.09
2022-10-11T18:06:32.848Z,96928.84
2022-10-11T18:09:00.944Z,96924.25
2022-10-11T18:11:27.895Z,96923.78
2022-10-11T18:13:54.469Z,96921.72
2022-10-11T18:16:24.580Z,96927.00
2022-10-11T18:18:51.129Z,96921.72
2022-10-11T18:21:18.801Z,96913.25
2022-10-11T18:23:46.135Z,96923.16
2022-10-11T18:26:18.441Z,96919.34
2022-10-11T18:28:45.782Z,96912.91
2022-10-11T18:31:16.175Z,96901.44
2022-10-11T18:33:45.525Z,96918.28
2022-10-11T18:36:16.741Z,96911.50
2022-10-11T18:38:46.504Z,96912.69
2022-10-11T18:41:15.722Z,96904.00
2022-10-11T18:43:42.443Z,96904.44
2022-10-11T18:46:13.851Z,96907.19
2022-10-11T18:48:42.179Z,96906.81
2022-10-11T18:51:18.582Z,96903.03
2022-10-11T18:53:45.736Z,96904.44
2022-10-11T18:56:14.015Z,96905.91
2022-10-11T18:58:41.648Z,96902.88
2022-10-11T19:01:15.959Z,96902.88
2022-10-11T19:03:43.906Z,96899.13
2022-10-11T19:06:17.023Z,96903.31
2022-10-11T19:08:48.588Z,96895.28
2022-10-11T19:11:16.232Z,96902.88
2022-10-11T19:13:43.462Z,96900.66
2022-10-11T19:16:13.222Z,96896.88
2022-10-11T19:18:44.053Z,96888.38
2022-10-11T19:21:13.102Z,96888.44
2022-10-11T19:23:42.319Z,96886.16
2022-10-11T19:26:14.302Z,96892.22
2022-10-11T19:28:41.330Z,96889.56
2022-10-11T19:31:10.036Z,96889.91
2022-10-11T19:33:36.776Z,96892.91
2022-10-11T19:36:05.334Z,96887.97
2022-10-11T19:38:34.032Z,96894.03
2022-10-11T19:41:01.395Z,96895.16
2022-10-11T19:43:28.206Z,96893.97
2022-10-11T19:46:05.605Z,96896.34
2022-10-11T19:48:32.657Z,96902.38
2022-10-11T19:51:03.776Z,96889.00
2022-10-11T19:53:30.296Z,96894.41
2022-10-11T19:56:03.509Z,96896.63
2022-10-11T19:58:30.461Z,96894.41
2022-10-11T20:01:10.117Z,96895.94
2022-10-11T20:03:37.721Z,96898.22
2022-10-11T20:06:07.576Z,96889.50
2022-10-11T20:08:35.063Z,96897.06
2022-10-11T20:11:03.855Z,96896.63
2022-10-11T20:13:34.725Z,96896.63
2022-10-11T20:16:05.913Z,96903.44
2022-10-11T20:18:32.449Z,96909.13
2022-10-11T20:21:04.475Z,96906.84
2022-10-11T20:23:33.717Z,96905.72
2022-10-11T20:26:06.013Z,96901.16
2022-10-11T20:28:33.977Z,96905.31
2022-10-11T20:31:02.255Z,96903.34
2022-10-11T20:33:30.310Z,96904.88
2022-10-11T20:36:05.213Z,96901.53
2022-10-11T20:38:33.707Z,96901.81
2022-10-11T20:41:04.165Z,96901.66
2022-10-11T20:43:30.661Z,96896.22
2022-10-11T20:46:11.399Z,96891.69
2022-10-11T20:48:40.539Z,96893.50
2022-10-11T20:51:09.420Z,96900.59
2022-10-11T20:53:37.381Z,96899.34
2022-10-11T20:56:05.448Z,96905.50
2022-10-11T20:58:31.935Z,96903.19
2022-10-11T21:00:58.445Z,96901.50
2022-10-11T21:03:24.972Z,96906.97
2022-10-11T21:06:00.924Z,96899.41
2022-10-11T21:08:30.518Z,96910.75
2022-10-11T21:10:57.073Z,96903.81
2022-10-11T21:13:23.507Z,96902.91
2022-10-11T21:15:49.944Z,96906.25
2022-10-11T21:18:16.921Z,96908.34
2022-10-11T21:20:43.918Z,96908.25
2022-10-11T21:23:10.977Z,96910.81
2022-10-11T21:25:37.874Z,96906.22
2022-10-11T21:28:04.817Z,96910.59
2022-10-11T21:30:32.291Z,96920.50
2022-10-11T21:32:58.839Z,96913.91
2022-10-11T21:35:29.843Z,96906.72
2022-10-11T21:37:58.361Z,96914.94
2022-10-11T21:40:25.398Z,96898.88
2022-10-11T21:42:51.858Z,96912.13
2022-10-11T21:45:18.382Z,96905.06
2022-10-11T21:47:46.274Z,96905.72
2022-10-11T21:50:12.834Z,96902.56
2022-10-11T21:52:39.295Z,96901.91
2022-10-11T21:55:05.861Z,96902.53
2022-10-11T21:57:32.312Z,96901.31
2022-10-11T21:59:58.792Z,96899.78
2022-10-11T22:02:25.292Z,96896.28
2022-10-11T22:04:51.786Z,96900.47
2022-10-11T22:07:18.247Z,96896.28
2022-10-11T22:09:44.696Z,96888.59
2022-10-11T22:12:11.129Z,96895.56
2022-10-11T22:14:37.610Z,96896.50
2022-10-11T22:17:04.050Z,96900.91
2022-10-11T22:19:30.551Z,96894.34
2022-10-11T22:21:56.979Z,96893.47
2022-10-11T22:24:23.456Z,96896.88
2022-10-11T22:26:49.886Z,96894.25
2022-10-11T22:29:16.365Z,96893.03
2022-10-11T22:31:42.819Z,96897.91
2022-10-11T22:34:09.259Z,96892.34
2022-10-11T22:36:35.953Z,96876.47
2022-10-11T22:39:07.653Z,96888.25
2022-10-11T22:41:35.826Z,96886.78
2022-10-11T22:44:03.060Z,96887.22
2022-10-11T22:46:29.591Z,96881.41
2022-10-11T22:48:56.115Z,96886.97
2022-10-11T22:51:22.925Z,96880.00
2022-10-11T22:53:49.424Z,96888.34
2022-10-11T22:56:15.896Z,96872.56
2022-10-11T22:58:42.368Z,96872.31
2022-10-11T23:01:14.922Z,96881.53
2022-10-11T23:03:41.819Z,96874.34
2022-10-11T23:06:08.723Z,96876.13
2022-10-11T23:08:35.191Z,96878.09
2022-10-11T23:11:07.936Z,96882.63
2022-10-11T23:13:35.026Z,96877.16
2022-10-11T23:16:06.548Z,96868.63
2022-10-11T23:18:32.990Z,96882.28
2022-10-11T23:21:00.883Z,96886.47
2022-10-11T23:23:27.370Z,96882.66
2022-10-11T23:26:01.700Z,96889.72
2022-10-11T23:28:28.242Z,96886.88
2022-10-11T23:30:54.685Z,96884.59
2022-10-11T23:33:21.351Z,96878.34
2022-10-11T23:35:47.827Z,96883.63
2022-10-11T23:38:14.273Z,96878.59
2022-10-11T23:40:42.006Z,96879.69
2022-10-11T23:43:08.464Z,96883.56
2022-10-11T23:45:34.927Z,96886.63
2022-10-11T23:48:01.371Z,96878.16
2022-10-11T23:50:27.815Z,96887.31
2022-10-11T23:52:54.317Z,96897.56
2022-10-11T23:55:21.332Z,96880.78
2022-10-11T23:57:47.778Z,96888.84
